Terminal Aerodrome Forecast
Issued by NWS

Home | Current Version | Previous Version | Text Only | Print | Product List | Glossary On
Versions: 1 2 3 4 5 6 7 8 9 10 11 12 13 14
000
FTUS43 KMPX 191100
TAFRWF
TAF
KRWF 191121Z 1912/2012 14007KT 6SM BR SCT006 OVC010
      TEMPO 1912/1915 3SM BR OVC007
     FM191800 17009KT P6SM BKN008 OVC015
     FM200600 18007KT 4SM BR OVC006=

USA.gov is the U.S. government's official web portal to all federal, state and local government web resources and services.